Terminal Aerodrome Forecast
Issued by NWS

Home | Current Version | Previous Version | Text Only | Print | Product List | Glossary On
Versions: 1 2 3 4 5 6 7 8 9 10 11 12 13 14 15 16 17 18 19 20 21 22 23 24
000
FTUS44 KOUN 240521
TAFPNC
TAF
KPNC 240521Z 2406/2506 15011KT P6SM -RA SCT005 OVC040
      TEMPO 2406/2408 5SM -RA BKN005
     FM241000 16011KT P6SM VCSH BKN005
     FM242200 17013KT P6SM OVC025=

USA.gov is the U.S. government's official web portal to all federal, state and local government web resources and services.